sensor_id;sensor_type;location;lat;lon;timestamp;P1;durP1;ratioP1;P2;durP2;ratioP2
1140;SDS011;559;48.628;8.924;2022-08-21T00:01:10;138.73;;;133.03;;
1140;SDS011;559;48.628;8.924;2022-08-21T00:03:39;141.30;;;135.50;;
1140;SDS011;559;48.628;8.924;2022-08-21T00:06:06;138.40;;;132.77;;
1140;SDS011;559;48.628;8.924;2022-08-21T00:08:33;143.60;;;137.60;;
1140;SDS011;559;48.628;8.924;2022-08-21T00:11:00;147.07;;;140.80;;
1140;SDS011;559;48.628;8.924;2022-08-21T00:13:28;143.20;;;136.90;;
1140;SDS011;559;48.628;8.924;2022-08-21T00:15:55;143.27;;;137.27;;
1140;SDS011;559;48.628;8.924;2022-08-21T00:18:23;147.13;;;140.73;;
1140;SDS011;559;48.628;8.924;2022-08-21T00:20:49;146.27;;;139.93;;
1140;SDS011;559;48.628;8.924;2022-08-21T00:23:16;146.77;;;140.50;;
1140;SDS011;559;48.628;8.924;2022-08-21T00:25:43;142.83;;;136.30;;
1140;SDS011;559;48.628;8.924;2022-08-21T00:28:10;142.93;;;136.83;;
1140;SDS011;559;48.628;8.924;2022-08-21T00:30:39;145.17;;;139.00;;
1140;SDS011;559;48.628;8.924;2022-08-21T00:33:06;144.77;;;138.67;;
1140;SDS011;559;48.628;8.924;2022-08-21T00:35:34;148.02;;;141.75;;
1140;SDS011;559;48.628;8.924;2022-08-21T00:38:04;146.13;;;139.97;;
1140;SDS011;559;48.628;8.924;2022-08-21T00:40:35;139.77;;;133.77;;
1140;SDS011;559;48.628;8.924;2022-08-21T00:43:04;142.00;;;136.00;;
1140;SDS011;559;48.628;8.924;2022-08-21T00:45:32;143.83;;;137.63;;
1140;SDS011;559;48.628;8.924;2022-08-21T00:48:00;144.80;;;138.70;;
1140;SDS011;559;48.628;8.924;2022-08-21T00:50:28;146.53;;;140.30;;
1140;SDS011;559;48.628;8.924;2022-08-21T00:52:57;148.97;;;142.57;;
1140;SDS011;559;48.628;8.924;2022-08-21T00:55:24;143.03;;;136.93;;
1140;SDS011;559;48.628;8.924;2022-08-21T00:57:52;142.63;;;136.37;;
1140;SDS011;559;48.628;8.924;2022-08-21T01:00:21;140.90;;;134.80;;
1140;SDS011;559;48.628;8.924;2022-08-21T01:02:51;142.75;;;136.75;;
1140;SDS011;559;48.628;8.924;2022-08-21T01:05:19;141.80;;;135.75;;
1140;SDS011;559;48.628;8.924;2022-08-21T01:07:46;144.38;;;138.07;;
1140;SDS011;559;48.628;8.924;2022-08-21T01:10:13;141.90;;;135.60;;
1140;SDS011;559;48.628;8.924;2022-08-21T01:12:40;148.70;;;142.40;;
1140;SDS011;559;48.628;8.924;2022-08-21T01:15:07;140.57;;;134.68;;
1140;SDS011;559;48.628;8.924;2022-08-21T01:17:35;142.52;;;136.23;;
1140;SDS011;559;48.628;8.924;2022-08-21T01:20:04;142.73;;;136.43;;
1140;SDS011;559;48.628;8.924;2022-08-21T01:22:33;142.32;;;136.02;;
1140;SDS011;559;48.628;8.924;2022-08-21T01:25:00;146.65;;;140.25;;
1140;SDS011;559;48.628;8.924;2022-08-21T01:27:29;141.80;;;135.63;;
1140;SDS011;559;48.628;8.924;2022-08-21T01:29:56;146.45;;;140.05;;
1140;SDS011;559;48.628;8.924;2022-08-21T01:32:25;144.35;;;137.85;;
1140;SDS011;559;48.628;8.924;2022-08-21T01:34:52;146.27;;;139.88;;
1140;SDS011;559;48.628;8.924;2022-08-21T01:37:19;144.55;;;138.05;;
1140;SDS011;559;48.628;8.924;2022-08-21T01:39:48;142.35;;;136.15;;
1140;SDS011;559;48.628;8.924;2022-08-21T01:42:15;142.48;;;136.48;;
1140;SDS011;559;48.628;8.924;2022-08-21T01:44:41;140.40;;;134.40;;
1140;SDS011;559;48.628;8.924;2022-08-21T01:47:09;144.48;;;138.18;;
1140;SDS011;559;48.628;8.924;2022-08-21T01:49:37;145.80;;;139.30;;
1140;SDS011;559;48.628;8.924;2022-08-21T01:52:05;146.60;;;140.15;;
1140;SDS011;559;48.628;8.924;2022-08-21T01:54:32;145.73;;;139.23;;
1140;SDS011;559;48.628;8.924;2022-08-21T01:57:00;148.60;;;142.10;;
1140;SDS011;559;48.628;8.924;2022-08-21T01:59:27;143.77;;;137.15;;
1140;SDS011;559;48.628;8.924;2022-08-21T02:01:53;143.85;;;137.65;;
1140;SDS011;559;48.628;8.924;2022-08-21T02:04:20;145.40;;;139.10;;
1140;SDS011;559;48.628;8.924;2022-08-21T02:06:47;148.82;;;142.27;;
1140;SDS011;559;48.628;8.924;2022-08-21T02:09:14;144.85;;;138.45;;
1140;SDS011;559;48.628;8.924;2022-08-21T02:11:41;144.13;;;137.63;;
1140;SDS011;559;48.628;8.924;2022-08-21T02:14:10;144.20;;;137.80;;
1140;SDS011;559;48.628;8.924;2022-08-21T02:16:38;144.65;;;138.25;;
1140;SDS011;559;48.628;8.924;2022-08-21T02:19:05;150.30;;;143.50;;
1140;SDS011;559;48.628;8.924;2022-08-21T02:21:32;154.30;;;147.48;;
1140;SDS011;559;48.628;8.924;2022-08-21T02:23:58;152.52;;;145.52;;
1140;SDS011;559;48.628;8.924;2022-08-21T02:26:25;151.93;;;144.88;;
1140;SDS011;559;48.628;8.924;2022-08-21T02:28:51;152.98;;;145.88;;
1140;SDS011;559;48.628;8.924;2022-08-21T02:31:19;154.95;;;147.77;;
1140;SDS011;559;48.628;8.924;2022-08-21T02:33:46;153.95;;;146.70;;
1140;SDS011;559;48.628;8.924;2022-08-21T02:36:13;156.20;;;148.90;;
1140;SDS011;559;48.628;8.924;2022-08-21T02:38:40;154.85;;;147.60;;
1140;SDS011;559;48.628;8.924;2022-08-21T02:41:09;155.07;;;147.88;;
1140;SDS011;559;48.628;8.924;2022-08-21T02:43:37;153.55;;;146.50;;
1140;SDS011;559;48.628;8.924;2022-08-21T02:46:04;149.80;;;143.00;;
1140;SDS011;559;48.628;8.924;2022-08-21T02:48:33;151.38;;;144.68;;
1140;SDS011;559;48.628;8.924;2022-08-21T02:51:01;145.25;;;138.82;;
1140;SDS011;559;48.628;8.924;2022-08-21T02:53:29;150.63;;;143.93;;
1140;SDS011;559;48.628;8.924;2022-08-21T02:55:56;147.60;;;141.10;;
1140;SDS011;559;48.628;8.924;2022-08-21T02:58:26;146.75;;;140.25;;
1140;SDS011;559;48.628;8.924;2022-08-21T03:00:53;151.43;;;144.68;;
1140;SDS011;559;48.628;8.924;2022-08-21T03:03:20;148.77;;;142.13;;
1140;SDS011;559;48.628;8.924;2022-08-21T03:05:48;147.95;;;141.25;;
1140;SDS011;559;48.628;8.924;2022-08-21T03:08:16;145.98;;;139.45;;
1140;SDS011;559;48.628;8.924;2022-08-21T03:10:45;148.85;;;142.25;;
1140;SDS011;559;48.628;8.924;2022-08-21T03:13:12;149.35;;;142.65;;
1140;SDS011;559;48.628;8.924;2022-08-21T03:15:39;152.48;;;145.55;;
1140;SDS011;559;48.628;8.924;2022-08-21T03:18:06;149.70;;;142.90;;
1140;SDS011;559;48.628;8.924;2022-08-21T03:20:34;153.05;;;146.05;;
1140;SDS011;559;48.628;8.924;2022-08-21T03:23:02;152.55;;;145.25;;
1140;SDS011;559;48.628;8.924;2022-08-21T03:25:29;149.40;;;142.35;;
1140;SDS011;559;48.628;8.924;2022-08-21T03:27:57;152.40;;;145.07;;
1140;SDS011;559;48.628;8.924;2022-08-21T03:30:24;150.10;;;142.98;;
1140;SDS011;559;48.628;8.924;2022-08-21T03:32:50;146.65;;;139.45;;
1140;SDS011;559;48.628;8.924;2022-08-21T03:35:18;145.68;;;138.68;;
1140;SDS011;559;48.628;8.924;2022-08-21T03:37:45;149.15;;;141.93;;
1140;SDS011;559;48.628;8.924;2022-08-21T03:40:14;143.02;;;136.23;;
1140;SDS011;559;48.628;8.924;2022-08-21T03:42:42;142.10;;;135.38;;
1140;SDS011;559;48.628;8.924;2022-08-21T03:45:10;145.95;;;139.15;;
1140;SDS011;559;48.628;8.924;2022-08-21T03:47:36;146.55;;;139.85;;
1140;SDS011;559;48.628;8.924;2022-08-21T03:50:03;149.60;;;142.95;;
1140;SDS011;559;48.628;8.924;2022-08-21T03:52:31;145.85;;;139.18;;
1140;SDS011;559;48.628;8.924;2022-08-21T03:54:57;145.82;;;138.82;;
1140;SDS011;559;48.628;8.924;2022-08-21T03:57:25;151.60;;;144.60;;
1140;SDS011;559;48.628;8.924;2022-08-21T03:59:52;147.55;;;140.65;;
1140;SDS011;559;48.628;8.924;2022-08-21T04:02:19;145.45;;;138.55;;
1140;SDS011;559;48.628;8.924;2022-08-21T04:04:46;147.07;;;140.18;;
1140;SDS011;559;48.628;8.924;2022-08-21T04:07:13;145.65;;;138.75;;
1140;SDS011;559;48.628;8.924;2022-08-21T04:09:39;146.07;;;139.52;;
1140;SDS011;559;48.628;8.924;2022-08-21T04:12:06;148.13;;;141.32;;
1140;SDS011;559;48.628;8.924;2022-08-21T04:14:34;154.52;;;147.23;;
1140;SDS011;559;48.628;8.924;2022-08-21T04:17:01;154.30;;;146.77;;
1140;SDS011;559;48.628;8.924;2022-08-21T04:19:27;153.55;;;146.05;;
1140;SDS011;559;48.628;8.924;2022-08-21T04:21:54;157.07;;;149.32;;
1140;SDS011;559;48.628;8.924;2022-08-21T04:24:20;155.40;;;147.48;;
1140;SDS011;559;48.628;8.924;2022-08-21T04:26:47;150.20;;;142.70;;
1140;SDS011;559;48.628;8.924;2022-08-21T04:29:15;152.02;;;144.57;;
1140;SDS011;559;48.628;8.924;2022-08-21T04:31:42;152.40;;;145.00;;
1140;SDS011;559;48.628;8.924;2022-08-21T04:34:09;148.18;;;141.02;;
1140;SDS011;559;48.628;8.924;2022-08-21T04:36:36;148.10;;;140.75;;
1140;SDS011;559;48.628;8.924;2022-08-21T04:39:02;144.40;;;137.20;;
1140;SDS011;559;48.628;8.924;2022-08-21T04:41:29;143.55;;;136.40;;
1140;SDS011;559;48.628;8.924;2022-08-21T04:43:56;146.10;;;138.85;;
1140;SDS011;559;48.628;8.924;2022-08-21T04:46:23;143.55;;;136.30;;
1140;SDS011;559;48.628;8.924;2022-08-21T04:48:50;148.57;;;140.57;;
1140;SDS011;559;48.628;8.924;2022-08-21T04:51:18;143.75;;;136.55;;
1140;SDS011;559;48.628;8.924;2022-08-21T04:53:47;148.27;;;140.90;;
1140;SDS011;559;48.628;8.924;2022-08-21T04:56:19;149.00;;;141.50;;
1140;SDS011;559;48.628;8.924;2022-08-21T04:58:47;141.43;;;134.32;;
1140;SDS011;559;48.628;8.924;2022-08-21T05:01:15;140.55;;;133.45;;
1140;SDS011;559;48.628;8.924;2022-08-21T05:03:45;143.05;;;135.75;;
1140;SDS011;559;48.628;8.924;2022-08-21T05:06:13;140.07;;;133.00;;
1140;SDS011;559;48.628;8.924;2022-08-21T05:08:41;146.82;;;139.13;;
1140;SDS011;559;48.628;8.924;2022-08-21T05:11:10;141.88;;;134.57;;
1140;SDS011;559;48.628;8.924;2022-08-21T05:13:38;138.05;;;131.13;;
1140;SDS011;559;48.628;8.924;2022-08-21T05:16:05;145.43;;;138.25;;
1140;SDS011;559;48.628;8.924;2022-08-21T05:18:32;140.98;;;134.07;;
1140;SDS011;559;48.628;8.924;2022-08-21T05:20:58;137.70;;;130.70;;
1140;SDS011;559;48.628;8.924;2022-08-21T05:23:26;140.25;;;133.18;;
1140;SDS011;559;48.628;8.924;2022-08-21T05:25:53;141.05;;;133.95;;
1140;SDS011;559;48.628;8.924;2022-08-21T05:28:20;142.95;;;135.65;;
1140;SDS011;559;48.628;8.924;2022-08-21T05:30:48;146.07;;;138.48;;
1140;SDS011;559;48.628;8.924;2022-08-21T05:33:15;140.40;;;133.10;;
1140;SDS011;559;48.628;8.924;2022-08-21T05:35:41;138.70;;;131.60;;
1140;SDS011;559;48.628;8.924;2022-08-21T05:38:08;136.75;;;129.75;;
1140;SDS011;559;48.628;8.924;2022-08-21T05:40:36;137.57;;;130.77;;
1140;SDS011;559;48.628;8.924;2022-08-21T05:43:02;135.98;;;129.38;;
1140;SDS011;559;48.628;8.924;2022-08-21T05:45:30;139.23;;;132.43;;
1140;SDS011;559;48.628;8.924;2022-08-21T05:48:04;137.75;;;130.85;;
1140;SDS011;559;48.628;8.924;2022-08-21T05:50:31;137.30;;;130.40;;
1140;SDS011;559;48.628;8.924;2022-08-21T05:52:58;134.38;;;127.47;;
1140;SDS011;559;48.628;8.924;2022-08-21T05:55:24;133.73;;;127.03;;
1140;SDS011;559;48.628;8.924;2022-08-21T05:57:52;132.82;;;126.22;;
1140;SDS011;559;48.628;8.924;2022-08-21T06:00:19;129.80;;;123.30;;
1140;SDS011;559;48.628;8.924;2022-08-21T06:02:48;127.50;;;121.40;;
1140;SDS011;559;48.628;8.924;2022-08-21T06:05:15;127.37;;;121.17;;
1140;SDS011;559;48.628;8.924;2022-08-21T06:07:42;131.47;;;125.03;;
1140;SDS011;559;48.628;8.924;2022-08-21T06:10:09;126.73;;;120.83;;
1140;SDS011;559;48.628;8.924;2022-08-21T06:12:36;125.50;;;119.70;;
1140;SDS011;559;48.628;8.924;2022-08-21T06:15:04;122.57;;;116.67;;
1140;SDS011;559;48.628;8.924;2022-08-21T06:17:32;124.60;;;118.90;;
1140;SDS011;559;48.628;8.924;2022-08-21T06:19:58;127.83;;;121.73;;
1140;SDS011;559;48.628;8.924;2022-08-21T06:22:25;121.57;;;115.97;;
1140;SDS011;559;48.628;8.924;2022-08-21T06:24:51;122.20;;;116.80;;
1140;SDS011;559;48.628;8.924;2022-08-21T06:27:18;121.83;;;116.53;;
1140;SDS011;559;48.628;8.924;2022-08-21T06:29:44;109.00;;;104.00;;
1140;SDS011;559;48.628;8.924;2022-08-21T06:32:12;108.33;;;103.60;;
1140;SDS011;559;48.628;8.924;2022-08-21T06:34:40;109.30;;;104.40;;
1140;SDS011;559;48.628;8.924;2022-08-21T06:37:07;106.80;;;101.97;;
1140;SDS011;559;48.628;8.924;2022-08-21T06:39:34;109.70;;;104.90;;
1140;SDS011;559;48.628;8.924;2022-08-21T06:42:00;105.27;;;100.57;;
1140;SDS011;559;48.628;8.924;2022-08-21T06:44:27;100.90;;;96.70;;
1140;SDS011;559;48.628;8.924;2022-08-21T06:46:55;101.30;;;97.10;;
1140;SDS011;559;48.628;8.924;2022-08-21T06:49:23;99.60;;;95.50;;
1140;SDS011;559;48.628;8.924;2022-08-21T06:51:49;93.93;;;90.23;;
1140;SDS011;559;48.628;8.924;2022-08-21T06:54:16;92.60;;;89.00;;
1140;SDS011;559;48.628;8.924;2022-08-21T06:56:42;90.53;;;87.13;;
1140;SDS011;559;48.628;8.924;2022-08-21T06:59:09;94.37;;;90.77;;
1140;SDS011;559;48.628;8.924;2022-08-21T07:01:35;86.97;;;83.77;;
1140;SDS011;559;48.628;8.924;2022-08-21T07:04:02;82.40;;;79.40;;
1140;SDS011;559;48.628;8.924;2022-08-21T07:06:30;77.23;;;74.27;;
1140;SDS011;559;48.628;8.924;2022-08-21T07:08:57;79.80;;;76.77;;
1140;SDS011;559;48.628;8.924;2022-08-21T07:11:24;76.97;;;74.23;;
1140;SDS011;559;48.628;8.924;2022-08-21T07:13:51;75.93;;;73.23;;
1140;SDS011;559;48.628;8.924;2022-08-21T07:16:19;76.70;;;73.83;;
1140;SDS011;559;48.628;8.924;2022-08-21T07:18:46;74.23;;;71.37;;
1140;SDS011;559;48.628;8.924;2022-08-21T07:21:13;67.27;;;64.70;;
1140;SDS011;559;48.628;8.924;2022-08-21T07:23:42;65.10;;;62.77;;
1140;SDS011;559;48.628;8.924;2022-08-21T07:26:11;54.07;;;52.33;;
1140;SDS011;559;48.628;8.924;2022-08-21T07:28:38;39.57;;;37.80;;
1140;SDS011;559;48.628;8.924;2022-08-21T07:31:05;30.47;;;29.27;;
1140;SDS011;559;48.628;8.924;2022-08-21T07:33:33;23.23;;;22.20;;
1140;SDS011;559;48.628;8.924;2022-08-21T07:36:00;23.93;;;22.93;;
1140;SDS011;559;48.628;8.924;2022-08-21T07:38:27;24.83;;;23.83;;
1140;SDS011;559;48.628;8.924;2022-08-21T07:40:55;17.63;;;16.83;;
1140;SDS011;559;48.628;8.924;2022-08-21T07:43:23;18.20;;;17.30;;
1140;SDS011;559;48.628;8.924;2022-08-21T07:45:50;22.47;;;21.57;;
1140;SDS011;559;48.628;8.924;2022-08-21T07:48:18;32.23;;;30.80;;
1140;SDS011;559;48.628;8.924;2022-08-21T07:50:45;29.17;;;27.53;;
1140;SDS011;559;48.628;8.924;2022-08-21T07:53:12;24.20;;;22.90;;
1140;SDS011;559;48.628;8.924;2022-08-21T07:55:38;13.47;;;12.87;;
1140;SDS011;559;48.628;8.924;2022-08-21T07:58:06;13.93;;;13.03;;
1140;SDS011;559;48.628;8.924;2022-08-21T08:00:33;11.87;;;11.10;;
1140;SDS011;559;48.628;8.924;2022-08-21T08:02:59;12.30;;;11.33;;
1140;SDS011;559;48.628;8.924;2022-08-21T08:05:29;9.07;;;8.27;;
1140;SDS011;559;48.628;8.924;2022-08-21T08:07:56;8.40;;;8.00;;
1140;SDS011;559;48.628;8.924;2022-08-21T08:10:23;10.00;;;9.20;;
1140;SDS011;559;48.628;8.924;2022-08-21T08:12:50;9.33;;;6.30;;
1140;SDS011;559;48.628;8.924;2022-08-21T08:15:21;6.50;;;5.97;;
1140;SDS011;559;48.628;8.924;2022-08-21T08:17:50;7.27;;;6.67;;
1140;SDS011;559;48.628;8.924;2022-08-21T08:20:17;6.83;;;6.20;;
1140;SDS011;559;48.628;8.924;2022-08-21T08:22:49;7.23;;;6.50;;
1140;SDS011;559;48.628;8.924;2022-08-21T08:25:18;7.00;;;5.07;;
1140;SDS011;559;48.628;8.924;2022-08-21T08:27:45;4.70;;;3.97;;
1140;SDS011;559;48.628;8.924;2022-08-21T08:30:12;4.30;;;3.90;;
1140;SDS011;559;48.628;8.924;2022-08-21T08:32:41;4.50;;;4.10;;
1140;SDS011;559;48.628;8.924;2022-08-21T08:35:08;3.83;;;3.47;;
1140;SDS011;559;48.628;8.924;2022-08-21T08:37:35;6.80;;;4.07;;
1140;SDS011;559;48.628;8.924;2022-08-21T08:40:05;4.80;;;3.07;;
1140;SDS011;559;48.628;8.924;2022-08-21T08:42:33;3.97;;;3.60;;
1140;SDS011;559;48.628;8.924;2022-08-21T08:45:02;4.43;;;3.30;;
1140;SDS011;559;48.628;8.924;2022-08-21T08:47:30;4.90;;;3.20;;
1140;SDS011;559;48.628;8.924;2022-08-21T08:50:00;5.73;;;3.37;;
1140;SDS011;559;48.628;8.924;2022-08-21T08:52:30;4.00;;;3.40;;
1140;SDS011;559;48.628;8.924;2022-08-21T08:55:00;4.17;;;3.77;;
1140;SDS011;559;48.628;8.924;2022-08-21T08:57:29;3.87;;;2.80;;
1140;SDS011;559;48.628;8.924;2022-08-21T08:59:57;4.10;;;3.33;;
1140;SDS011;559;48.628;8.924;2022-08-21T09:02:25;4.83;;;2.93;;
1140;SDS011;559;48.628;8.924;2022-08-21T09:04:52;4.37;;;3.07;;
1140;SDS011;559;48.628;8.924;2022-08-21T09:07:23;5.73;;;3.03;;
1140;SDS011;559;48.628;8.924;2022-08-21T09:09:57;3.93;;;3.40;;
1140;SDS011;559;48.628;8.924;2022-08-21T09:12:38;5.80;;;3.30;;
1140;SDS011;559;48.628;8.924;2022-08-21T09:15:12;4.10;;;2.80;;
1140;SDS011;559;48.628;8.924;2022-08-21T09:17:49;2.77;;;2.30;;
1140;SDS011;559;48.628;8.924;2022-08-21T09:20:33;4.67;;;3.00;;
1140;SDS011;559;48.628;8.924;2022-08-21T09:23:08;5.00;;;3.10;;
1140;SDS011;559;48.628;8.924;2022-08-21T09:25:45;3.60;;;3.03;;
1140;SDS011;559;48.628;8.924;2022-08-21T09:28:19;6.87;;;3.03;;
1140;SDS011;559;48.628;8.924;2022-08-21T09:30:45;4.30;;;2.87;;
1140;SDS011;559;48.628;8.924;2022-08-21T09:33:12;4.57;;;2.43;;
1140;SDS011;559;48.628;8.924;2022-08-21T09:35:47;8.83;;;3.53;;
1140;SDS011;559;48.628;8.924;2022-08-21T09:38:24;3.37;;;2.73;;
1140;SDS011;559;48.628;8.924;2022-08-21T09:40:56;9.57;;;3.70;;
1140;SDS011;559;48.628;8.924;2022-08-21T09:43:25;3.57;;;2.80;;
1140;SDS011;559;48.628;8.924;2022-08-21T09:46:01;3.43;;;2.83;;
1140;SDS011;559;48.628;8.924;2022-08-21T09:48:29;4.10;;;2.93;;
1140;SDS011;559;48.628;8.924;2022-08-21T09:51:05;5.60;;;3.07;;
1140;SDS011;559;48.628;8.924;2022-08-21T09:53:33;4.27;;;3.00;;
1140;SDS011;559;48.628;8.924;2022-08-21T09:56:03;3.33;;;2.77;;
1140;SDS011;559;48.628;8.924;2022-08-21T09:58:49;4.13;;;3.53;;
1140;SDS011;559;48.628;8.924;2022-08-21T10:01:17;4.63;;;2.70;;
1140;SDS011;559;48.628;8.924;2022-08-21T10:03:45;4.50;;;3.17;;
1140;SDS011;559;48.628;8.924;2022-08-21T10:06:20;4.27;;;3.27;;
1140;SDS011;559;48.628;8.924;2022-08-21T10:08:50;5.33;;;3.10;;
1140;SDS011;559;48.628;8.924;2022-08-21T10:11:17;3.00;;;2.60;;
1140;SDS011;559;48.628;8.924;2022-08-21T10:13:47;4.23;;;2.73;;
1140;SDS011;559;48.628;8.924;2022-08-21T10:16:22;3.60;;;2.90;;
1140;SDS011;559;48.628;8.924;2022-08-21T10:18:56;3.67;;;2.87;;
1140;SDS011;559;48.628;8.924;2022-08-21T10:21:30;4.20;;;2.47;;
1140;SDS011;559;48.628;8.924;2022-08-21T10:24:03;3.23;;;2.77;;
1140;SDS011;559;48.628;8.924;2022-08-21T10:26:39;3.80;;;2.70;;
1140;SDS011;559;48.628;8.924;2022-08-21T10:29:14;5.57;;;2.90;;
1140;SDS011;559;48.628;8.924;2022-08-21T10:31:48;4.13;;;2.90;;
1140;SDS011;559;48.628;8.924;2022-08-21T10:34:24;5.00;;;2.83;;
1140;SDS011;559;48.628;8.924;2022-08-21T10:37:01;3.10;;;2.80;;
1140;SDS011;559;48.628;8.924;2022-08-21T10:39:36;5.07;;;3.10;;
1140;SDS011;559;48.628;8.924;2022-08-21T10:42:20;6.07;;;2.90;;
1140;SDS011;559;48.628;8.924;2022-08-21T10:44:54;3.57;;;3.27;;
1140;SDS011;559;48.628;8.924;2022-08-21T10:47:28;3.17;;;2.87;;
1140;SDS011;559;48.628;8.924;2022-08-21T10:50:00;4.00;;;2.90;;
1140;SDS011;559;48.628;8.924;2022-08-21T10:52:41;3.97;;;2.90;;
1140;SDS011;559;48.628;8.924;2022-08-21T10:55:17;3.70;;;2.70;;
1140;SDS011;559;48.628;8.924;2022-08-21T10:57:46;4.90;;;2.77;;
1140;SDS011;559;48.628;8.924;2022-08-21T11:00:17;3.80;;;2.57;;
1140;SDS011;559;48.628;8.924;2022-08-21T11:02:47;4.93;;;2.63;;
1140;SDS011;559;48.628;8.924;2022-08-21T11:05:16;4.73;;;2.97;;
1140;SDS011;559;48.628;8.924;2022-08-21T11:07:47;3.17;;;2.20;;
1140;SDS011;559;48.628;8.924;2022-08-21T11:10:18;5.23;;;2.90;;
1140;SDS011;559;48.628;8.924;2022-08-21T11:12:48;3.97;;;2.70;;
1140;SDS011;559;48.628;8.924;2022-08-21T11:15:36;4.67;;;2.83;;
1140;SDS011;559;48.628;8.924;2022-08-21T11:18:17;3.50;;;2.60;;
1140;SDS011;559;48.628;8.924;2022-08-21T11:20:49;2.47;;;2.27;;
1140;SDS011;559;48.628;8.924;2022-08-21T11:23:21;3.30;;;2.30;;
1140;SDS011;559;48.628;8.924;2022-08-21T11:25:52;2.40;;;1.80;;
1140;SDS011;559;48.628;8.924;2022-08-21T11:28:22;3.93;;;2.77;;
1140;SDS011;559;48.628;8.924;2022-08-21T11:30:52;3.80;;;2.93;;
1140;SDS011;559;48.628;8.924;2022-08-21T11:33:28;2.73;;;2.43;;
1140;SDS011;559;48.628;8.924;2022-08-21T11:36:02;3.60;;;2.80;;
1140;SDS011;559;48.628;8.924;2022-08-21T11:38:35;3.17;;;2.87;;
1140;SDS011;559;48.628;8.924;2022-08-21T11:41:11;4.63;;;2.80;;
1140;SDS011;559;48.628;8.924;2022-08-21T11:43:44;3.00;;;2.30;;
1140;SDS011;559;48.628;8.924;2022-08-21T11:46:18;3.03;;;2.10;;
1140;SDS011;559;48.628;8.924;2022-08-21T11:48:53;2.60;;;2.40;;
1140;SDS011;559;48.628;8.924;2022-08-21T11:51:27;2.23;;;2.03;;
1140;SDS011;559;48.628;8.924;2022-08-21T11:53:58;2.57;;;2.20;;
1140;SDS011;559;48.628;8.924;2022-08-21T11:56:31;4.10;;;2.50;;
1140;SDS011;559;48.628;8.924;2022-08-21T11:59:01;2.90;;;2.67;;
1140;SDS011;559;48.628;8.924;2022-08-21T12:01:30;3.40;;;2.20;;
1140;SDS011;559;48.628;8.924;2022-08-21T12:04:00;3.90;;;2.77;;
1140;SDS011;559;48.628;8.924;2022-08-21T12:06:30;3.03;;;2.47;;
1140;SDS011;559;48.628;8.924;2022-08-21T12:08:58;4.67;;;2.93;;
1140;SDS011;559;48.628;8.924;2022-08-21T12:11:26;4.40;;;3.00;;
1140;SDS011;559;48.628;8.924;2022-08-21T12:13:56;2.53;;;2.30;;
1140;SDS011;559;48.628;8.924;2022-08-21T12:16:31;2.40;;;2.20;;
1140;SDS011;559;48.628;8.924;2022-08-21T12:19:02;9.27;;;3.20;;
1140;SDS011;559;48.628;8.924;2022-08-21T12:21:30;4.00;;;2.57;;
1140;SDS011;559;48.628;8.924;2022-08-21T12:24:01;3.20;;;2.80;;
1140;SDS011;559;48.628;8.924;2022-08-21T12:26:31;2.67;;;2.43;;
1140;SDS011;559;48.628;8.924;2022-08-21T12:29:13;4.13;;;2.80;;
1140;SDS011;559;48.628;8.924;2022-08-21T12:31:56;3.50;;;2.53;;
1140;SDS011;559;48.628;8.924;2022-08-21T12:34:27;3.40;;;2.20;;
1140;SDS011;559;48.628;8.924;2022-08-21T12:36:58;3.67;;;2.33;;
1140;SDS011;559;48.628;8.924;2022-08-21T12:39:27;3.40;;;2.63;;
1140;SDS011;559;48.628;8.924;2022-08-21T12:41:57;5.70;;;2.70;;
1140;SDS011;559;48.628;8.924;2022-08-21T12:44:28;3.30;;;3.00;;
1140;SDS011;559;48.628;8.924;2022-08-21T12:46:59;2.50;;;2.30;;
1140;SDS011;559;48.628;8.924;2022-08-21T12:49:30;2.63;;;2.43;;
1140;SDS011;559;48.628;8.924;2022-08-21T12:52:01;2.87;;;2.17;;
1140;SDS011;559;48.628;8.924;2022-08-21T12:54:30;3.80;;;2.90;;
1140;SDS011;559;48.628;8.924;2022-08-21T12:56:59;4.57;;;3.10;;
1140;SDS011;559;48.628;8.924;2022-08-21T12:59:28;3.77;;;2.20;;
1140;SDS011;559;48.628;8.924;2022-08-21T13:01:55;6.50;;;2.90;;
1140;SDS011;559;48.628;8.924;2022-08-21T13:04:24;3.00;;;2.07;;
1140;SDS011;559;48.628;8.924;2022-08-21T13:06:57;2.73;;;2.40;;
1140;SDS011;559;48.628;8.924;2022-08-21T13:09:26;2.77;;;2.57;;
1140;SDS011;559;48.628;8.924;2022-08-21T13:11:54;4.20;;;2.67;;
1140;SDS011;559;48.628;8.924;2022-08-21T13:14:23;3.33;;;1.80;;
1140;SDS011;559;48.628;8.924;2022-08-21T13:16:54;2.57;;;2.03;;
1140;SDS011;559;48.628;8.924;2022-08-21T13:19:22;3.20;;;1.83;;
1140;SDS011;559;48.628;8.924;2022-08-21T13:21:49;4.37;;;2.60;;
1140;SDS011;559;48.628;8.924;2022-08-21T13:24:18;3.57;;;2.90;;
1140;SDS011;559;48.628;8.924;2022-08-21T13:26:46;3.67;;;2.07;;
1140;SDS011;559;48.628;8.924;2022-08-21T13:29:16;2.57;;;2.37;;
1140;SDS011;559;48.628;8.924;2022-08-21T13:31:46;2.20;;;1.97;;
1140;SDS011;559;48.628;8.924;2022-08-21T13:34:15;4.77;;;2.60;;
1140;SDS011;559;48.628;8.924;2022-08-21T13:36:42;2.93;;;2.63;;
1140;SDS011;559;48.628;8.924;2022-08-21T13:39:10;2.70;;;2.30;;
1140;SDS011;559;48.628;8.924;2022-08-21T13:41:39;2.47;;;2.27;;
1140;SDS011;559;48.628;8.924;2022-08-21T13:44:14;4.10;;;2.57;;
1140;SDS011;559;48.628;8.924;2022-08-21T13:46:42;2.70;;;2.20;;
1140;SDS011;559;48.628;8.924;2022-08-21T13:49:09;2.90;;;2.60;;
1140;SDS011;559;48.628;8.924;2022-08-21T13:51:37;3.70;;;2.70;;
1140;SDS011;559;48.628;8.924;2022-08-21T13:54:13;2.37;;;1.97;;
1140;SDS011;559;48.628;8.924;2022-08-21T13:56:41;4.37;;;2.77;;
1140;SDS011;559;48.628;8.924;2022-08-21T13:59:09;3.93;;;2.53;;
1140;SDS011;559;48.628;8.924;2022-08-21T14:01:37;3.30;;;2.57;;
1140;SDS011;559;48.628;8.924;2022-08-21T14:04:06;2.80;;;2.40;;
1140;SDS011;559;48.628;8.924;2022-08-21T14:06:39;3.23;;;2.50;;
1140;SDS011;559;48.628;8.924;2022-08-21T14:09:10;4.53;;;2.87;;
1140;SDS011;559;48.628;8.924;2022-08-21T14:11:37;4.30;;;2.80;;
1140;SDS011;559;48.628;8.924;2022-08-21T14:14:06;3.90;;;2.90;;
1140;SDS011;559;48.628;8.924;2022-08-21T14:16:44;3.30;;;3.00;;
1140;SDS011;559;48.628;8.924;2022-08-21T14:19:17;2.53;;;2.00;;
1140;SDS011;559;48.628;8.924;2022-08-21T14:21:47;6.03;;;2.50;;
1140;SDS011;559;48.628;8.924;2022-08-21T14:24:14;5.60;;;2.70;;
1140;SDS011;559;48.628;8.924;2022-08-21T14:26:51;3.40;;;2.43;;
1140;SDS011;559;48.628;8.924;2022-08-21T14:29:20;3.97;;;3.10;;
1140;SDS011;559;48.628;8.924;2022-08-21T14:31:51;3.43;;;3.00;;
1140;SDS011;559;48.628;8.924;2022-08-21T14:34:19;4.00;;;3.20;;
1140;SDS011;559;48.628;8.924;2022-08-21T14:36:48;2.73;;;2.23;;
1140;SDS011;559;48.628;8.924;2022-08-21T14:39:15;2.57;;;2.33;;
1140;SDS011;559;48.628;8.924;2022-08-21T14:41:42;3.23;;;2.53;;
1140;SDS011;559;48.628;8.924;2022-08-21T14:44:11;2.57;;;2.37;;
1140;SDS011;559;48.628;8.924;2022-08-21T14:46:37;3.33;;;2.80;;
1140;SDS011;559;48.628;8.924;2022-08-21T14:49:04;4.00;;;2.70;;
1140;SDS011;559;48.628;8.924;2022-08-21T14:51:31;3.70;;;2.70;;
1140;SDS011;559;48.628;8.924;2022-08-21T14:53:59;6.20;;;3.37;;
1140;SDS011;559;48.628;8.924;2022-08-21T14:56:25;2.50;;;1.93;;
1140;SDS011;559;48.628;8.924;2022-08-21T14:58:52;3.67;;;2.77;;
1140;SDS011;559;48.628;8.924;2022-08-21T15:01:20;4.70;;;2.50;;
1140;SDS011;559;48.628;8.924;2022-08-21T15:03:48;4.10;;;2.23;;
1140;SDS011;559;48.628;8.924;2022-08-21T15:06:15;4.57;;;3.00;;
1140;SDS011;559;48.628;8.924;2022-08-21T15:08:42;2.70;;;2.50;;
1140;SDS011;559;48.628;8.924;2022-08-21T15:11:11;4.93;;;2.67;;
1140;SDS011;559;48.628;8.924;2022-08-21T15:13:39;3.27;;;2.73;;